Time;durP1;ratioP1;P1;durP2;ratioP2;P2;SDS_P1;SDS_P2;PMS_P1;PMS_P2;Temp;Humidity;BMP_temperature;BMP_pressure;BME280_temperature;BME280_humidity;BME280_pressure;Samples;Min_cycle;Max_cycle;Signal;HPM_P1;HPM_P2
2021/12/22 00:00:17;;;;;;;26.60;16.50;;;3.90;88.80;;;;;;5033881;28;20110;-82
2021/12/22 00:02:48;;;;;;;25.05;15.52;;;3.90;88.70;;;;;;5033977;28;20094;-83
2021/12/22 00:05:23;;;;;;;25.35;15.18;;;3.90;88.50;;;;;;5032749;28;20029;-83
2021/12/22 00:07:50;;;;;;;29.15;15.25;;;3.90;88.40;;;;;;5032574;28;20361;-83
2021/12/22 00:10:18;;;;;;;28.27;15.85;;;4.00;88.60;;;;;;5032975;28;20028;-78
2021/12/22 00:12:44;;;;;;;24.52;16.10;;;4.00;88.50;;;;;;5031015;28;20477;-80
2021/12/22 00:15:10;;;;;;;27.75;15.60;;;4.00;88.30;;;;;;5033918;28;20044;-82
2021/12/22 00:17:36;;;;;;;27.00;15.63;;;4.00;88.20;;;;;;5033665;28;20532;-82
2021/12/22 00:20:04;;;;;;;28.17;15.73;;;3.90;88.10;;;;;;5033938;28;20104;-88
2021/12/22 00:22:30;;;;;;;25.60;15.68;;;3.80;88.10;;;;;;5034499;28;20057;-86
2021/12/22 00:24:56;;;;;;;26.17;15.82;;;3.80;88.20;;;;;;5034547;28;20044;-86
2021/12/22 00:27:23;;;;;;;28.42;15.82;;;3.80;88.30;;;;;;5034128;28;20113;-78
2021/12/22 00:29:51;;;;;;;25.10;15.57;;;3.70;88.70;;;;;;5033663;28;20494;-81
2021/12/22 00:32:17;;;;;;;31.33;16.38;;;3.60;88.80;;;;;;5042553;28;20037;-84
2021/12/22 00:34:48;;;;;;;24.90;15.43;;;3.60;88.80;;;;;;5033360;28;20067;-83
2021/12/22 00:37:25;;;;;;;26.00;15.50;;;3.60;89.50;;;;;;5032491;28;20076;-84
2021/12/22 00:39:51;;;;;;;29.27;15.63;;;3.70;88.90;;;;;;5031060;28;20033;-82
2021/12/22 00:42:18;;;;;;;29.10;15.90;;;3.60;88.60;;;;;;5033548;28;20056;-80
2021/12/22 00:44:53;;;;;;;27.55;16.88;;;3.70;88.50;;;;;;5033035;28;20021;-79
2021/12/22 00:47:21;;;;;;;27.40;17.08;;;3.60;88.60;;;;;;5030559;28;20081;-85
2021/12/22 00:49:47;;;;;;;27.00;15.25;;;3.60;88.50;;;;;;5032196;28;20025;-82
2021/12/22 00:52:14;;;;;;;26.20;14.65;;;3.60;88.70;;;;;;5033074;28;20049;-85
2021/12/22 00:54:40;;;;;;;28.42;15.75;;;3.70;88.80;;;;;;5032366;28;20060;-83
2021/12/22 00:57:09;;;;;;;27.02;15.60;;;3.70;88.60;;;;;;5032564;28;20033;-79
2021/12/22 00:59:37;;;;;;;28.58;15.68;;;3.70;88.50;;;;;;5032126;28;20049;-79
2021/12/22 01:02:06;;;;;;;30.92;16.02;;;3.70;88.90;;;;;;5032765;28;20389;-81
2021/12/22 01:04:32;;;;;;;22.85;14.38;;;3.70;88.30;;;;;;5031531;28;20025;-80
2021/12/22 01:06:58;;;;;;;34.05;15.15;;;3.70;88.20;;;;;;5032397;28;20389;-79
2021/12/22 01:09:23;;;;;;;28.27;15.82;;;3.70;88.20;;;;;;5032399;28;20030;-80
2021/12/22 01:11:50;;;;;;;27.17;14.95;;;3.70;88.30;;;;;;5032200;28;20047;-78
2021/12/22 01:14:16;;;;;;;26.80;14.25;;;3.70;88.30;;;;;;5032861;28;20025;-80
2021/12/22 01:16:49;;;;;;;25.95;15.68;;;3.80;88.40;;;;;;5032305;28;20033;-81
2021/12/22 01:19:21;;;;;;;28.80;16.20;;;3.80;88.00;;;;;;5032873;28;20049;-80
2021/12/22 01:21:53;;;;;;;23.75;13.68;;;3.80;88.00;;;;;;5033286;28;20057;-80
2021/12/22 01:24:30;;;;;;;28.63;14.32;;;3.70;88.10;;;;;;5032091;28;20503;-80
2021/12/22 01:27:04;;;;;;;26.15;14.80;;;3.70;87.90;;;;;;5032709;28;20045;-80
2021/12/22 01:29:35;;;;;;;26.77;15.70;;;3.70;87.70;;;;;;5036114;28;20028;-80
2021/12/22 01:32:01;;;;;;;26.65;14.60;;;3.60;87.90;;;;;;5036748;28;20038;-80
2021/12/22 01:34:27;;;;;;;29.85;15.32;;;3.50;88.20;;;;;;5032620;28;20056;-81
2021/12/22 01:36:53;;;;;;;30.33;16.02;;;3.50;88.40;;;;;;5032492;28;20026;-81
2021/12/22 01:39:19;;;;;;;24.90;15.30;;;3.50;88.10;;;;;;5032406;28;20400;-81
2021/12/22 01:41:45;;;;;;;30.23;15.68;;;3.50;88.30;;;;;;5031838;28;20159;-81
2021/12/22 01:44:23;;;;;;;29.40;15.98;;;3.40;88.30;;;;;;5029932;28;20072;-81
2021/12/22 01:49:49;;;;;;;28.33;15.15;;;3.30;88.40;;;;;;5030321;28;20031;-82
2021/12/22 01:52:15;;;;;;;28.88;16.05;;;3.30;88.30;;;;;;5031693;28;20547;-81
2021/12/22 01:54:46;;;;;;;29.75;16.42;;;3.30;88.30;;;;;;5032079;28;20128;-81
2021/12/22 01:57:12;;;;;;;26.08;15.60;;;3.30;88.40;;;;;;5032301;28;20087;-82
2021/12/22 01:59:40;;;;;;;30.20;14.77;;;3.20;88.50;;;;;;5033726;28;20049;-82
2021/12/22 02:02:07;;;;;;;31.13;16.15;;;3.20;89.00;;;;;;5033919;28;20423;-82
2021/12/22 02:04:35;;;;;;;26.70;14.85;;;3.20;88.50;;;;;;5035560;28;20155;-82
2021/12/22 02:07:00;;;;;;;30.63;15.77;;;3.10;88.30;;;;;;5036120;28;20482;-82
2021/12/22 02:11:54;;;;;;;30.25;15.88;;;2.90;89.00;;;;;;5036050;28;20037;-83
2021/12/22 02:14:20;;;;;;;27.02;15.52;;;2.80;89.30;;;;;;5035930;28;20389;-82
2021/12/22 02:16:46;;;;;;;35.78;16.33;;;2.60;89.70;;;;;;5035131;28;20026;-82
2021/12/22 02:19:12;;;;;;;31.98;16.40;;;2.60;90.20;;;;;;5035625;28;20025;-82
2021/12/22 02:21:44;;;;;;;35.20;16.25;;;2.50;90.30;;;;;;5035882;28;20048;-83
2021/12/22 02:24:10;;;;;;;28.47;15.93;;;2.50;90.40;;;;;;5036509;28;20037;-82
2021/12/22 02:29:39;;;;;;;27.88;14.98;;;2.60;90.40;;;;;;5037465;28;20025;-82
2021/12/22 02:34:40;;;;;;;30.02;15.55;;;2.70;90.10;;;;;;5035873;28;20022;-82
2021/12/22 02:37:11;;;;;;;30.23;16.98;;;2.70;90.00;;;;;;5035481;28;20041;-82
2021/12/22 02:39:37;;;;;;;32.70;15.68;;;2.70;90.00;;;;;;5035465;28;20025;-82
2021/12/22 02:42:09;;;;;;;28.70;15.65;;;2.70;90.00;;;;;;5035290;28;20033;-81
2021/12/22 02:44:34;;;;;;;27.40;16.30;;;2.70;90.00;;;;;;5035470;28;20079;-82
2021/12/22 02:47:15;;;;;;;32.95;15.65;;;2.70;89.90;;;;;;5035018;28;20396;-82
2021/12/22 02:49:40;;;;;;;31.50;15.75;;;2.60;89.70;;;;;;5035458;28;20373;-82
2021/12/22 02:52:06;;;;;;;27.27;15.18;;;2.60;89.70;;;;;;5035280;28;20040;-82
2021/12/22 02:54:40;;;;;;;31.08;16.70;;;2.50;89.80;;;;;;5035029;28;20042;-81
2021/12/22 02:57:19;;;;;;;32.20;16.92;;;2.50;89.90;;;;;;5035138;28;20044;-82
2021/12/22 03:00:05;;;;;;;31.88;14.85;;;2.50;90.00;;;;;;5035048;28;20022;-81
2021/12/22 03:05:23;;;;;;;29.73;17.23;;;2.30;90.10;;;;;;5019135;28;20541;-81
2021/12/22 03:07:49;;;;;;;28.10;15.90;;;2.20;90.20;;;;;;5034750;28;20078;-82
2021/12/22 03:10:18;;;;;;;25.17;14.02;;;2.20;90.30;;;;;;5034269;28;20486;-82
2021/12/22 03:12:52;;;;;;;27.63;15.00;;;2.20;90.50;;;;;;5035141;28;20055;-81
2021/12/22 03:15:19;;;;;;;26.90;14.48;;;2.20;90.40;;;;;;5034721;28;20423;-81
2021/12/22 03:17:46;;;;;;;27.85;15.43;;;2.20;90.40;;;;;;5031189;28;20037;-82
2021/12/22 03:20:14;;;;;;;27.45;14.40;;;2.20;90.50;;;;;;5034767;28;20451;-82
2021/12/22 03:22:43;;;;;;;29.70;15.38;;;2.20;90.40;;;;;;5034736;28;20045;-82
2021/12/22 03:25:20;;;;;;;27.17;15.00;;;2.30;90.30;;;;;;5035828;28;20113;-82
2021/12/22 03:27:50;;;;;;;31.55;15.98;;;2.30;90.40;;;;;;5033796;28;20464;-82
2021/12/22 03:30:18;;;;;;;25.35;15.30;;;2.40;90.30;;;;;;5041160;28;20056;-81
2021/12/22 03:32:44;;;;;;;29.45;15.57;;;2.40;90.20;;;;;;5034385;28;20103;-82
2021/12/22 03:35:16;;;;;;;26.48;14.60;;;2.40;90.00;;;;;;5033896;28;20030;-82
2021/12/22 03:37:43;;;;;;;27.98;15.73;;;2.40;90.00;;;;;;5035369;28;20472;-82
2021/12/22 03:40:09;;;;;;;28.08;15.98;;;2.40;89.80;;;;;;5035329;28;20080;-82
2021/12/22 03:42:34;;;;;;;29.17;14.50;;;2.30;89.90;;;;;;5035385;28;20029;-83
2021/12/22 03:45:00;;;;;;;33.08;15.82;;;2.30;90.00;;;;;;5035442;28;20366;-82
2021/12/22 03:47:26;;;;;;;29.55;15.38;;;2.30;90.00;;;;;;5034902;28;20419;-81
2021/12/22 03:49:52;;;;;;;28.83;15.27;;;2.30;90.00;;;;;;5035467;28;20041;-82
2021/12/22 03:52:18;;;;;;;27.60;14.82;;;2.20;90.00;;;;;;5034571;28;20041;-81
2021/12/22 03:54:43;;;;;;;25.45;14.02;;;2.30;90.00;;;;;;5035156;28;20077;-82
2021/12/22 03:57:09;;;;;;;28.48;13.45;;;2.30;90.00;;;;;;5034852;28;20067;-82
2021/12/22 03:59:37;;;;;;;25.38;14.13;;;2.30;89.90;;;;;;5034956;28;20504;-81
2021/12/22 04:02:03;;;;;;;26.67;14.35;;;2.30;89.70;;;;;;5034395;28;20392;-81
2021/12/22 04:04:29;;;;;;;30.27;15.63;;;2.30;89.50;;;;;;5034557;28;20037;-79
2021/12/22 04:06:55;;;;;;;37.20;16.20;;;2.20;89.50;;;;;;5034283;28;20396;-79
2021/12/22 04:09:26;;;;;;;29.08;14.30;;;2.10;89.90;;;;;;5034666;28;20064;-79
2021/12/22 04:11:52;;;;;;;26.90;14.98;;;2.00;90.00;;;;;;5034074;28;20048;-81
2021/12/22 04:14:18;;;;;;;27.08;15.57;;;2.00;90.10;;;;;;5034450;28;20033;-81
2021/12/22 04:16:44;;;;;;;26.67;15.13;;;2.00;90.40;;;;;;5034753;28;20029;-81
2021/12/22 04:19:09;;;;;;;28.38;14.98;;;2.00;90.20;;;;;;5034158;28;20388;-82
2021/12/22 04:21:35;;;;;;;32.53;15.25;;;2.00;90.20;;;;;;5034074;28;20034;-82
2021/12/22 04:24:01;;;;;;;30.35;16.02;;;2.10;90.10;;;;;;5033963;28;20056;-79
2021/12/22 04:26:30;;;;;;;30.27;14.50;;;2.00;90.00;;;;;;5034231;28;20041;-80
2021/12/22 04:28:56;;;;;;;29.55;14.68;;;2.00;90.10;;;;;;5032974;28;20030;-81
2021/12/22 04:31:21;;;;;;;32.50;16.08;;;2.00;90.20;;;;;;5033976;28;20034;-80
2021/12/22 04:33:47;;;;;;;30.23;14.90;;;1.90;90.40;;;;;;5034316;28;20025;-79
2021/12/22 04:36:13;;;;;;;30.83;15.80;;;1.90;90.90;;;;;;5033823;28;20029;-80
2021/12/22 04:38:38;;;;;;;32.58;16.73;;;1.90;90.50;;;;;;5033753;28;20040;-80
2021/12/22 04:41:04;;;;;;;30.88;16.35;;;1.80;90.40;;;;;;5034001;28;20025;-81
2021/12/22 04:43:30;;;;;;;30.35;16.38;;;1.80;90.50;;;;;;5034286;28;20036;-80
2021/12/22 04:45:55;;;;;;;30.25;16.45;;;1.80;90.40;;;;;;5033738;28;20030;-80
2021/12/22 04:48:21;;;;;;;28.00;15.68;;;1.80;90.40;;;;;;5033946;28;20060;-81
2021/12/22 04:50:47;;;;;;;33.20;15.88;;;1.70;90.50;;;;;;5033553;28;20501;-80
2021/12/22 04:53:25;;;;;;;29.02;15.15;;;1.70;90.50;;;;;;5034068;28;20116;-81
2021/12/22 04:55:51;;;;;;;33.53;16.92;;;1.70;90.60;;;;;;5033773;28;20033;-81
2021/12/22 04:58:16;;;;;;;28.38;15.57;;;1.70;90.60;;;;;;5034106;28;20036;-81
2021/12/22 05:00:43;;;;;;;27.60;15.63;;;1.70;90.60;;;;;;5033858;28;20018;-81
2021/12/22 05:03:08;;;;;;;32.50;16.65;;;1.70;90.50;;;;;;5033536;28;20047;-80
2021/12/22 05:05:34;;;;;;;29.02;15.65;;;1.60;90.60;;;;;;5033677;28;20030;-83
2021/12/22 05:08:00;;;;;;;29.08;15.20;;;1.50;90.60;;;;;;5033416;28;20033;-84
2021/12/22 05:10:26;;;;;;;29.63;15.82;;;1.40;91.00;;;;;;5032959;28;20028;-83
2021/12/22 05:12:53;;;;;;;29.50;15.77;;;1.40;91.10;;;;;;5033063;28;20439;-82
2021/12/22 05:15:22;;;;;;;27.70;15.48;;;1.50;91.00;;;;;;5021383;28;20078;-81
2021/12/22 05:18:12;;;;;;;29.73;15.30;;;1.50;90.80;;;;;;5033306;28;20456;-83
2021/12/22 05:20:34;;;;;;;31.17;15.60;;;1.60;90.80;;;;;;5033289;28;20389;-84
2021/12/22 05:23:00;;;;;;;31.15;16.08;;;1.50;90.70;;;;;;5033345;28;20041;-84
2021/12/22 05:25:26;;;;;;;24.80;14.98;;;1.50;90.50;;;;;;5033701;28;20036;-83
2021/12/22 05:27:51;;;;;;;31.58;16.13;;;1.50;90.40;;;;;;5042865;28;20112;-82
2021/12/22 05:30:18;;;;;;;33.25;15.15;;;1.40;90.40;;;;;;5036768;28;20033;-83
2021/12/22 05:32:43;;;;;;;29.27;15.77;;;1.30;90.50;;;;;;5030549;28;20076;-83
2021/12/22 05:35:10;;;;;;;31.88;16.50;;;1.30;90.70;;;;;;5034700;28;20025;-85
2021/12/22 05:37:36;;;;;;;32.10;15.88;;;1.20;90.70;;;;;;5033020;28;20447;-84
2021/12/22 05:40:03;;;;;;;32.47;16.20;;;1.20;90.90;;;;;;5033301;28;20029;-84
2021/12/22 05:42:29;;;;;;;28.55;15.60;;;1.20;91.00;;;;;;5033245;28;20037;-84
2021/12/22 05:44:55;;;;;;;34.15;16.75;;;1.20;91.10;;;;;;5033149;28;20028;-83
2021/12/22 05:47:20;;;;;;;30.90;15.90;;;1.20;91.00;;;;;;5033002;28;20030;-83
2021/12/22 05:49:48;;;;;;;31.88;14.15;;;1.10;91.10;;;;;;5033975;28;20029;-83
2021/12/22 05:52:14;;;;;;;30.95;14.90;;;0.90;91.30;;;;;;5032947;28;20064;-81
2021/12/22 05:54:39;;;;;;;30.50;14.82;;;0.90;91.50;;;;;;5033156;28;20053;-81
2021/12/22 05:57:06;;;;;;;29.38;15.45;;;1.00;91.60;;;;;;5032594;28;20448;-82
2021/12/22 05:59:31;;;;;;;34.50;15.60;;;1.10;91.50;;;;;;5032888;28;20033;-82
2021/12/22 06:01:57;;;;;;;32.08;14.90;;;1.10;91.40;;;;;;5033357;28;20184;-82
2021/12/22 06:04:22;;;;;;;25.92;14.18;;;1.10;91.60;;;;;;5032563;28;20021;-82
2021/12/22 06:06:48;;;;;;;25.15;13.13;;;1.20;91.30;;;;;;5032567;28;20033;-83
2021/12/22 06:09:14;;;;;;;31.92;15.43;;;1.40;91.40;;;;;;5033520;28;20044;-83
2021/12/22 06:11:40;;;;;;;33.03;17.02;;;1.40;91.00;;;;;;5032388;28;20048;-83
2021/12/22 06:14:05;;;;;;;32.60;16.02;;;1.30;90.80;;;;;;5033264;28;20401;-83
2021/12/22 06:16:31;;;;;;;37.10;17.20;;;1.30;90.90;;;;;;5033043;28;20487;-81
2021/12/22 06:19:02;;;;;;;29.65;14.80;;;1.30;90.90;;;;;;5032420;28;20037;-80
2021/12/22 06:21:29;;;;;;;27.38;13.82;;;1.20;90.90;;;;;;5026075;28;20025;-79
2021/12/22 06:23:55;;;;;;;28.73;14.05;;;1.30;90.90;;;;;;5032845;28;20033;-81
2021/12/22 06:26:20;;;;;;;27.67;14.13;;;1.40;90.80;;;;;;5034988;28;20029;-79
2021/12/22 06:28:46;;;;;;;28.25;14.38;;;1.50;90.70;;;;;;5039056;28;20045;-80
2021/12/22 06:31:12;;;;;;;30.88;14.95;;;1.50;90.70;;;;;;5032272;28;20048;-80
2021/12/22 06:33:37;;;;;;;30.77;14.63;;;1.60;90.90;;;;;;5032948;28;20420;-80
2021/12/22 06:36:03;;;;;;;28.23;14.70;;;1.70;90.60;;;;;;5032608;28;20033;-80
2021/12/22 06:38:29;;;;;;;28.60;13.93;;;1.70;90.40;;;;;;5032309;28;20140;-80
2021/12/22 06:40:55;;;;;;;29.88;14.10;;;1.70;90.40;;;;;;5032576;28;20026;-80
2021/12/22 06:43:20;;;;;;;28.90;14.50;;;1.80;90.20;;;;;;5031982;28;20026;-79
2021/12/22 06:45:47;;;;;;;30.00;14.50;;;1.80;90.10;;;;;;5032315;28;20026;-79
2021/12/22 06:48:13;;;;;;;30.67;14.70;;;1.90;90.20;;;;;;5034146;28;20038;-81
2021/12/22 06:50:38;;;;;;;32.15;14.98;;;1.90;90.10;;;;;;5033726;28;20128;-80
2021/12/22 06:53:04;;;;;;;33.03;14.32;;;1.90;90.00;;;;;;5036329;28;20139;-85
2021/12/22 06:55:30;;;;;;;30.50;14.77;;;1.90;89.90;;;;;;5036817;28;20033;-87
2021/12/22 06:57:56;;;;;;;26.52;13.73;;;1.90;90.00;;;;;;5036525;28;20435;-86
2021/12/22 07:00:22;;;;;;;30.48;15.55;;;1.90;90.30;;;;;;5036350;28;20030;-82
2021/12/22 07:02:48;;;;;;;29.92;14.70;;;1.90;90.00;;;;;;5035687;28;20044;-81
2021/12/22 07:05:14;;;;;;;31.75;15.32;;;2.00;89.80;;;;;;5035720;28;20037;-86
2021/12/22 07:07:40;;;;;;;28.67;14.35;;;1.90;89.70;;;;;;5025187;28;20473;-86
2021/12/22 07:10:10;;;;;;;31.55;15.10;;;1.90;89.80;;;;;;5035766;28;20033;-90
2021/12/22 07:12:36;;;;;;;31.23;16.15;;;1.90;89.80;;;;;;5037881;28;20064;-89
2021/12/22 07:15:05;;;;;;;29.23;15.50;;;1.80;89.90;;;;;;5035342;28;20033;-83
2021/12/22 07:17:30;;;;;;;29.95;15.68;;;1.80;90.10;;;;;;5034616;28;20082;-83
2021/12/22 07:19:56;;;;;;;31.85;14.73;;;1.70;90.20;;;;;;5034337;28;20025;-83
2021/12/22 07:22:22;;;;;;;30.92;14.90;;;1.70;90.20;;;;;;5034242;28;20471;-84
2021/12/22 07:24:47;;;;;;;25.38;13.82;;;1.80;90.20;;;;;;5038289;28;20025;-84
2021/12/22 07:27:13;;;;;;;27.65;14.32;;;1.80;90.20;;;;;;5040086;28;20160;-88
2021/12/22 07:29:39;;;;;;;28.98;13.80;;;1.80;90.00;;;;;;5035868;28;20032;-85
2021/12/22 07:32:05;;;;;;;29.77;13.00;;;1.90;90.10;;;;;;5035076;28;20064;-79
2021/12/22 07:34:40;;;;;;;31.45;13.65;;;1.90;90.20;;;;;;5034267;28;20476;-78
2021/12/22 07:37:26;;;;;;;26.85;13.75;;;2.00;91.30;;;;;;5033873;28;20488;-78
2021/12/22 07:39:52;;;;;;;29.55;14.32;;;2.20;92.30;;;;;;5032264;28;20029;-77
2021/12/22 07:42:18;;;;;;;30.25;14.82;;;2.30;92.40;;;;;;5034147;28;20503;-78
2021/12/22 07:44:43;;;;;;;29.25;13.77;;;2.40;92.40;;;;;;5032185;28;20017;-77
2021/12/22 07:47:09;;;;;;;27.77;13.48;;;2.40;91.90;;;;;;5028425;28;20029;-78
2021/12/22 07:49:35;;;;;;;29.67;14.57;;;2.60;92.50;;;;;;5034188;28;20073;-80
2021/12/22 07:52:00;;;;;;;25.25;12.82;;;2.70;92.50;;;;;;5031453;28;20451;-79
2021/12/22 07:54:26;;;;;;;26.80;13.77;;;2.90;92.50;;;;;;5033090;28;20091;-82
2021/12/22 07:56:52;;;;;;;24.98;13.65;;;3.00;92.30;;;;;;5032791;28;20037;-81
2021/12/22 07:59:17;;;;;;;25.80;12.73;;;3.10;91.80;;;;;;5033642;28;20439;-76
2021/12/22 08:01:43;;;;;;;24.15;13.00;;;3.20;91.50;;;;;;5032962;28;20113;-82
2021/12/22 08:04:09;;;;;;;22.58;11.68;;;3.30;91.40;;;;;;5022731;28;20385;-79
2021/12/22 08:06:34;;;;;;;25.50;11.85;;;3.30;91.60;;;;;;5022435;28;20112;-77
2021/12/22 08:09:00;;;;;;;27.05;13.63;;;3.50;91.80;;;;;;5032654;28;20109;-81
2021/12/22 08:11:26;;;;;;;23.35;12.10;;;3.50;90.60;;;;;;5033782;28;20041;-81
2021/12/22 08:13:51;;;;;;;24.13;12.63;;;3.50;90.80;;;;;;5033169;28;20032;-82
2021/12/22 08:16:17;;;;;;;26.83;12.45;;;3.50;91.00;;;;;;5032638;28;20033;-78
2021/12/22 08:18:43;;;;;;;22.95;11.98;;;3.50;90.20;;;;;;5032195;28;20030;-79
2021/12/22 08:21:09;;;;;;;22.27;11.15;;;3.50;89.70;;;;;;5033059;28;20114;-79
2021/12/22 08:23:34;;;;;;;24.70;12.43;;;3.50;90.40;;;;;;5033332;28;20032;-79
2021/12/22 08:26:00;;;;;;;24.23;12.05;;;3.60;90.20;;;;;;5025574;28;20030;-75
2021/12/22 08:28:25;;;;;;;24.80;13.02;;;3.60;89.50;;;;;;5032458;28;20031;-75
2021/12/22 08:30:51;;;;;;;27.52;12.65;;;3.50;88.50;;;;;;5033872;28;20113;-78
2021/12/22 08:33:21;;;;;;;23.88;12.43;;;3.60;89.00;;;;;;5033952;28;20380;-79
2021/12/22 08:38:50;;;;;;;22.48;12.13;;;3.50;87.60;;;;;;5031823;28;20523;-77
2021/12/22 08:41:33;;;;;;;25.85;11.98;;;3.50;88.40;;;;;;5032440;28;20032;-81
2021/12/22 08:44:02;;;;;;;18.92;10.50;;;3.60;89.20;;;;;;5032018;28;20029;-82
2021/12/22 08:46:29;;;;;;;20.83;10.98;;;3.60;89.60;;;;;;5033250;28;20033;-78
2021/12/22 08:48:55;;;;;;;25.13;12.07;;;3.80;89.50;;;;;;5033100;28;20022;-77
2021/12/22 08:51:21;;;;;;;25.02;11.45;;;3.80;88.50;;;;;;5033416;28;20130;-79
2021/12/22 08:53:47;;;;;;;23.50;12.55;;;3.70;88.10;;;;;;5033897;28;20045;-82
2021/12/22 08:56:14;;;;;;;22.70;12.63;;;3.60;87.10;;;;;;5033921;28;20022;-87
2021/12/22 08:58:40;;;;;;;21.98;11.77;;;3.50;87.70;;;;;;5034293;28;20053;-78
2021/12/22 09:01:06;;;;;;;22.15;11.68;;;3.50;88.30;;;;;;5034140;28;20068;-78
2021/12/22 09:03:32;;;;;;;23.30;11.60;;;3.60;88.50;;;;;;5033689;28;20056;-75
2021/12/22 09:05:59;;;;;;;23.10;11.95;;;3.60;88.20;;;;;;5033532;28;20423;-75
2021/12/22 09:08:25;;;;;;;25.17;12.07;;;3.60;87.80;;;;;;5031470;28;20033;-76
2021/12/22 09:10:50;;;;;;;25.45;11.13;;;3.60;87.90;;;;;;5030915;28;20208;-76
2021/12/22 09:13:17;;;;;;;21.15;10.43;;;3.60;87.50;;;;;;5032122;28;20095;-75
2021/12/22 09:15:43;;;;;;;21.58;11.02;;;3.70;88.10;;;;;;5032145;28;20036;-76
2021/12/22 09:18:09;;;;;;;23.58;11.20;;;3.70;87.80;;;;;;5032366;28;20033;-76
2021/12/22 09:20:34;;;;;;;21.65;10.27;;;3.70;87.40;;;;;;5038269;28;20463;-78
2021/12/22 09:23:00;;;;;;;26.20;11.63;;;3.70;88.00;;;;;;5033768;28;20041;-75
2021/12/22 09:25:25;;;;;;;21.52;10.70;;;3.70;86.50;;;;;;5031694;28;20034;-75
2021/12/22 09:27:51;;;;;;;23.42;11.30;;;3.60;87.00;;;;;;5032558;28;20029;-77
2021/12/22 09:30:17;;;;;;;22.10;10.70;;;3.60;87.10;;;;;;5032462;28;20029;-79
2021/12/22 09:32:42;;;;;;;18.15;10.30;;;3.60;87.30;;;;;;5033231;28;20045;-78
2021/12/22 09:35:08;;;;;;;20.90;10.25;;;3.70;87.20;;;;;;5032505;28;20036;-78
2021/12/22 09:37:34;;;;;;;20.50;10.20;;;3.70;87.20;;;;;;5032906;28;20029;-78
2021/12/22 09:40:01;;;;;;;19.45;10.00;;;3.70;87.00;;;;;;5031914;28;20136;-77
2021/12/22 09:42:26;;;;;;;22.10;11.43;;;3.70;87.10;;;;;;5032097;28;20038;-78
2021/12/22 09:44:52;;;;;;;25.48;11.85;;;3.80;86.80;;;;;;5032614;28;20045;-78
2021/12/22 09:47:27;;;;;;;19.95;9.98;;;3.80;86.80;;;;;;5029732;28;20244;-77
2021/12/22 09:50:08;;;;;;;18.45;10.52;;;3.70;87.10;;;;;;5032106;28;20053;-81
2021/12/22 09:52:38;;;;;;;18.45;10.80;;;3.80;86.80;;;;;;5031633;28;20072;-85
2021/12/22 09:55:06;;;;;;;18.20;10.23;;;3.80;87.00;;;;;;5033043;28;20054;-83
2021/12/22 09:57:32;;;;;;;20.58;10.40;;;3.80;87.00;;;;;;5032639;28;20025;-88
2021/12/22 10:00:00;;;;;;;23.08;10.27;;;3.70;87.30;;;;;;5033367;28;20034;-86
2021/12/22 10:02:29;;;;;;;19.15;10.63;;;3.80;87.50;;;;;;5032937;28;20041;-83
2021/12/22 10:04:59;;;;;;;22.40;11.10;;;3.80;87.70;;;;;;5032581;28;20025;-83
2021/12/22 10:07:28;;;;;;;20.60;9.85;;;3.90;88.50;;;;;;5032709;28;20095;-80
2021/12/22 10:09:59;;;;;;;20.20;10.48;;;4.00;88.50;;;;;;5032832;28;20033;-79
2021/12/22 10:12:26;;;;;;;23.55;10.30;;;4.10;88.50;;;;;;5032508;28;20428;-78
2021/12/22 10:15:00;;;;;;;16.42;8.85;;;4.10;87.60;;;;;;5033650;28;20029;-77
2021/12/22 10:17:31;;;;;;;18.75;9.98;;;4.20;88.40;;;;;;5040843;28;20037;-80
2021/12/22 10:20:08;;;;;;;22.02;9.88;;;4.20;86.90;;;;;;5034576;28;20029;-78
2021/12/22 10:22:39;;;;;;;21.20;9.45;;;4.10;86.90;;;;;;5036890;28;20100;-77
2021/12/22 10:25:12;;;;;;;19.20;8.90;;;4.10;87.30;;;;;;5036800;28;20026;-77
2021/12/22 10:27:41;;;;;;;16.23;8.90;;;4.20;87.60;;;;;;5031444;28;20473;-79
2021/12/22 10:30:31;;;;;;;18.85;9.82;;;4.30;87.60;;;;;;5035608;28;20049;-78
2021/12/22 10:33:15;;;;;;;16.35;9.40;;;4.30;86.60;;;;;;5033215;28;20037;-79
2021/12/22 10:35:44;;;;;;;15.07;8.48;;;4.30;86.50;;;;;;5036660;28;20391;-78
2021/12/22 10:38:12;;;;;;;16.20;8.98;;;4.30;86.90;;;;;;5035148;28;20510;-78
2021/12/22 10:40:47;;;;;;;16.17;8.40;;;4.40;87.30;;;;;;5035841;28;20411;-79
2021/12/22 10:43:26;;;;;;;14.40;8.80;;;4.40;86.80;;;;;;5034135;28;20035;-76
2021/12/22 10:45:56;;;;;;;18.40;9.00;;;4.50;86.70;;;;;;5034968;28;20028;-78
2021/12/22 10:51:09;;;;;;;18.50;8.48;;;4.40;85.90;;;;;;5035440;28;20052;-78
2021/12/22 10:53:44;;;;;;;16.77;8.27;;;4.40;86.20;;;;;;5034858;28;20042;-80
2021/12/22 10:56:30;;;;;;;15.70;8.38;;;4.50;86.50;;;;;;5035681;28;20040;-77
2021/12/22 10:59:06;;;;;;;15.15;7.78;;;4.50;86.00;;;;;;5034420;28;20030;-77
2021/12/22 11:01:59;;;;;;;16.75;9.07;;;4.50;86.00;;;;;;5035628;28;20037;-79
2021/12/22 11:04:30;;;;;;;14.60;8.93;;;4.60;86.30;;;;;;5033563;28;20497;-78
2021/12/22 11:07:07;;;;;;;19.27;8.75;;;4.60;86.60;;;;;;5034873;28;20022;-79
2021/12/22 11:09:36;;;;;;;14.35;8.35;;;4.60;85.60;;;;;;5034947;28;20105;-81
2021/12/22 11:12:04;;;;;;;16.63;8.77;;;4.70;85.50;;;;;;5036485;28;20038;-79
2021/12/22 11:14:33;;;;;;;15.23;8.45;;;4.60;85.40;;;;;;5041760;28;20021;-79
2021/12/22 11:17:10;;;;;;;15.48;8.02;;;4.60;85.80;;;;;;5031882;28;20485;-81
2021/12/22 11:19:58;;;;;;;15.57;9.07;;;4.70;86.50;;;;;;5034043;28;20021;-79
2021/12/22 11:22:38;;;;;;;18.30;9.18;;;4.80;86.90;;;;;;5034403;28;20072;-79
2021/12/22 11:25:11;;;;;;;17.05;8.88;;;4.80;86.50;;;;;;5035992;28;20029;-87
2021/12/22 11:27:38;;;;;;;17.98;9.02;;;4.80;86.20;;;;;;5034996;28;20040;-86
2021/12/22 11:30:05;;;;;;;17.50;8.77;;;4.80;85.30;;;;;;5033488;28;20083;-83
2021/12/22 11:32:32;;;;;;;17.48;8.85;;;4.80;86.10;;;;;;5031752;28;20037;-85
2021/12/22 11:35:01;;;;;;;12.52;8.38;;;4.70;84.60;;;;;;5033348;28;20022;-86
2021/12/22 11:37:27;;;;;;;15.38;8.85;;;4.70;85.30;;;;;;5033499;28;20099;-80
2021/12/22 11:39:54;;;;;;;18.38;8.07;;;4.70;85.40;;;;;;5034128;28;20045;-91
2021/12/22 11:42:24;;;;;;;18.35;8.65;;;4.70;85.70;;;;;;5035567;28;20128;-93
2021/12/22 11:44:57;;;;;;;15.18;8.65;;;4.80;85.00;;;;;;5034070;28;20112;-83
2021/12/22 11:47:23;;;;;;;;;;;4.80;85.00;;;;;;5031566;28;20163;-92
2021/12/22 11:49:50;;;;;;;11.52;7.78;;;4.80;85.20;;;;;;5033118;28;20004;-85
2021/12/22 11:52:50;;;;;;;15.48;7.60;;;4.90;85.90;;;;;;5033691;28;20500;-79
2021/12/22 11:55:20;;;;;;;15.27;8.50;;;4.90;85.00;;;;;;5032225;28;20120;-82
2021/12/22 11:58:10;;;;;;;20.92;9.40;;;4.90;85.00;;;;;;5029266;28;20025;-83
2021/12/22 12:00:37;;;;;;;18.00;9.25;;;4.80;85.00;;;;;;5032928;28;20104;-86
2021/12/22 12:03:34;;;;;;;17.75;8.65;;;4.70;84.80;;;;;;5033764;28;20087;-85
2021/12/22 12:06:06;;;;;;;16.27;9.20;;;4.80;85.70;;;;;;5032004;28;20049;-84
2021/12/22 12:08:37;;;;;;;14.88;8.07;;;4.80;85.60;;;;;;5031503;28;20030;-84
2021/12/22 12:11:06;;;;;;;14.10;7.88;;;5.00;85.10;;;;;;5031991;28;20436;-87
2021/12/22 12:13:37;;;;;;;18.40;8.73;;;5.00;85.00;;;;;;5033711;28;20030;-85
2021/12/22 12:21:58;;;;;;;18.48;9.57;;;5.10;85.10;;;;;;5033372;28;20028;-85
2021/12/22 12:24:39;;;;;;;22.67;9.85;;;5.10;84.70;;;;;;5032248;28;20030;-81
2021/12/22 12:27:29;;;;;;;16.20;8.88;;;5.20;85.00;;;;;;5032278;28;20477;-84
2021/12/22 12:29:59;;;;;;;13.80;7.72;;;5.30;84.90;;;;;;5033528;28;21570;-81
2021/12/22 12:32:40;;;;;;;17.77;9.30;;;5.20;84.60;;;;;;5033223;28;20591;-81
2021/12/22 12:35:18;;;;;;;21.13;10.07;;;5.20;84.20;;;;;;5033751;28;20021;-80
2021/12/22 12:38:15;;;;;;;19.42;9.07;;;5.20;85.40;;;;;;5034899;28;20164;-79
2021/12/22 12:41:34;;;;;;;21.88;10.50;;;5.20;85.20;;;;;;5035663;28;20427;-86
2021/12/22 12:44:09;;;;;;;16.63;8.45;;;5.20;84.70;;;;;;5032514;28;20033;-84
2021/12/22 12:46:39;;;;;;;16.83;8.10;;;5.20;85.00;;;;;;5032138;28;20049;-81
2021/12/22 12:49:05;;;;;;;16.02;8.07;;;5.20;84.70;;;;;;5033463;28;20029;-81
2021/12/22 12:51:37;;;;;;;12.15;7.90;;;5.30;84.70;;;;;;5032161;28;20492;-81
2021/12/22 12:54:05;;;;;;;15.57;8.20;;;5.40;84.10;;;;;;5032436;28;20045;-81
2021/12/22 12:56:34;;;;;;;15.10;8.35;;;5.40;83.20;;;;;;5033310;28;20102;-81
2021/12/22 12:59:08;;;;;;;18.08;8.68;;;5.40;83.20;;;;;;5033111;28;20030;-83
2021/12/22 13:01:46;;;;;;;14.40;8.88;;;5.40;83.20;;;;;;5029954;28;20026;-83
2021/12/22 13:04:20;;;;;;;18.98;8.40;;;5.40;83.40;;;;;;5033006;28;20079;-81
2021/12/22 13:06:53;;;;;;;15.45;8.18;;;5.40;83.30;;;;;;5032714;28;20045;-81
2021/12/22 13:09:29;;;;;;;14.48;7.85;;;5.40;83.80;;;;;;5031528;28;20029;-81
2021/12/22 13:12:01;;;;;;;16.48;8.65;;;5.60;84.10;;;;;;5032233;28;20489;-85